Time;durP1;ratioP1;P1;durP2;ratioP2;P2;SDS_P1;SDS_P2;PMS_P1;PMS_P2;Temp;Humidity;BMP_temperature;BMP_pressure;BME280_temperature;BME280_humidity;BME280_pressure;Samples;Min_cycle;Max_cycle;Signal;HPM_P1;HPM_P2
2022/05/28 00:00:56;;;;;;;3.42;2.45;;;;;;;17.49;64.76;99053.69;4952001;29;20028;-93
2022/05/28 00:03:22;;;;;;;11.00;2.80;;;;;;;17.41;65.17;99052.59;4935971;29;20036;-93
2022/05/28 00:05:48;;;;;;;5.28;2.55;;;;;;;17.43;65.30;99046.81;4935984;29;20032;-92
2022/05/28 00:08:13;;;;;;;8.80;3.13;;;;;;;17.33;64.95;99042.50;4936094;29;20067;-92
2022/05/28 00:10:39;;;;;;;9.20;2.83;;;;;;;17.25;65.17;99024.28;4952042;29;20159;-92
2022/05/28 00:13:05;;;;;;;5.80;2.63;;;;;;;17.20;65.13;99014.31;4935821;29;20024;-92
2022/05/28 00:15:30;;;;;;;4.03;2.42;;;;;;;17.19;65.50;99020.09;4935958;29;20507;-92
2022/05/28 00:17:57;;;;;;;4.85;2.90;;;;;;;17.08;65.20;99001.38;4935826;29;20038;-93
2022/05/28 00:20:23;;;;;;;3.63;2.60;;;;;;;17.16;65.23;99011.47;4935555;29;20055;-92
2022/05/28 00:22:48;;;;;;;3.70;2.35;;;;;;;17.23;65.02;99012.91;4935630;29;20038;-92
2022/05/28 00:25:15;;;;;;;5.30;3.00;;;;;;;17.21;65.13;99015.94;4935984;29;20035;-92
2022/05/28 00:27:41;;;;;;;9.55;2.88;;;;;;;17.12;65.28;98996.09;4935376;29;20036;-93
2022/05/28 00:30:07;;;;;;;3.55;2.10;;;;;;;17.15;65.67;99000.91;4935751;29;20042;-93
2022/05/28 00:32:33;;;;;;;3.25;2.15;;;;;;;17.11;65.07;98995.28;4935718;29;20039;-91
2022/05/28 00:34:58;;;;;;;6.28;2.53;;;;;;;17.06;65.52;98978.34;4935534;29;20102;-92
2022/05/28 00:37:24;;;;;;;5.25;2.20;;;;;;;17.07;65.95;98990.81;4935488;29;20094;-92
2022/05/28 00:39:49;;;;;;;3.22;2.33;;;;;;;17.02;66.21;98991.78;4934813;29;20557;-91
2022/05/28 00:42:15;;;;;;;3.83;2.38;;;;;;;17.02;65.28;98985.56;4935442;29;20034;-91
2022/05/28 00:44:40;;;;;;;8.95;2.60;;;;;;;16.99;65.67;98984.25;4951066;29;20475;-92
2022/05/28 00:47:06;;;;;;;5.35;2.20;;;;;;;16.86;65.60;98977.06;4951048;29;20067;-92
2022/05/28 00:49:32;;;;;;;4.45;2.38;;;;;;;16.97;65.45;98997.38;4951157;29;20031;-92
2022/05/28 00:51:59;;;;;;;5.20;2.10;;;;;;;16.92;65.34;98989.38;4935561;29;20119;-92
2022/05/28 00:54:26;;;;;;;4.47;2.35;;;;;;;16.77;65.92;98991.44;4934908;29;20405;-92
2022/05/28 00:56:51;;;;;;;6.18;2.38;;;;;;;16.88;65.76;98991.94;4950845;29;20035;-91
2022/05/28 00:59:17;;;;;;;6.03;2.80;;;;;;;16.87;65.66;98994.97;4934849;29;20039;-91
2022/05/28 01:01:43;;;;;;;3.85;2.40;;;;;;;16.84;65.79;98987.47;4950627;28;20020;-91
2022/05/28 01:04:18;;;;;;;5.97;2.15;;;;;;;16.90;65.70;98989.69;4935103;29;20553;-91
2022/05/28 01:06:53;;;;;;;6.70;2.40;;;;;;;16.93;65.67;98993.69;4943908;29;20055;-91
2022/05/28 01:09:47;;;;;;;3.92;2.33;;;;;;;16.84;66.55;98998.34;4918429;29;20431;-92
2022/05/28 01:12:20;;;;;;;4.78;2.30;;;;;;;16.76;66.27;98980.88;4919820;29;20024;-92
2022/05/28 01:15:02;;;;;;;5.40;2.20;;;;;;;16.86;66.28;98999.63;4934638;29;20027;-92
2022/05/28 01:17:35;;;;;;;3.25;2.38;;;;;;;16.75;65.97;98977.34;4934657;29;20028;-92
2022/05/28 01:20:06;;;;;;;7.50;2.60;;;;;;;16.74;66.08;98991.25;4949546;29;20028;-92
2022/05/28 01:23:08;;;;;;;3.75;2.33;;;;;;;16.66;66.24;98989.34;4934358;29;20039;-91
2022/05/28 01:25:59;;;;;;;8.05;4.25;;;;;;;16.61;66.37;98982.13;4935430;29;20027;-91
2022/05/28 01:28:27;;;;;;;6.95;2.30;;;;;;;16.56;66.04;98961.34;4934421;29;20110;-91
2022/05/28 01:30:52;;;;;;;4.07;3.33;;;;;;;16.50;66.29;98949.03;4934430;29;20063;-92
2022/05/28 01:33:18;;;;;;;4.65;2.60;;;;;;;16.46;66.50;98952.72;4918808;29;20031;-91
2022/05/28 01:35:44;;;;;;;6.47;3.38;;;;;;;16.52;66.34;98962.31;4934587;29;20043;-91
2022/05/28 01:38:11;;;;;;;7.05;3.28;;;;;;;16.57;66.30;98981.97;4918457;29;20118;-92
2022/05/28 01:40:37;;;;;;;5.40;3.20;;;;;;;16.49;66.14;98960.22;4918764;29;20118;-91
2022/05/28 01:43:05;;;;;;;3.75;2.83;;;;;;;16.39;66.70;98955.09;4919144;29;20074;-91
2022/05/28 01:45:31;;;;;;;5.70;3.08;;;;;;;16.50;66.00;98964.53;4918345;29;20103;-91
2022/05/28 01:48:00;;;;;;;5.45;3.00;;;;;;;16.41;66.62;98966.44;4918763;29;20475;-92
2022/05/28 01:50:25;;;;;;;12.23;3.20;;;;;;;16.43;66.58;98977.78;4918721;29;20087;-92
2022/05/28 01:52:51;;;;;;;6.60;3.00;;;;;;;16.49;66.61;98987.41;4934760;29;20035;-92
2022/05/28 01:55:17;;;;;;;5.47;3.00;;;;;;;16.38;66.56;98981.47;4934311;29;20119;-91
2022/05/28 01:57:42;;;;;;;5.50;2.90;;;;;;;16.48;66.42;98993.97;4918524;29;20040;-91
2022/05/28 02:00:09;;;;;;;7.55;3.13;;;;;;;16.36;67.01;98964.69;4918643;29;20034;-91
2022/05/28 02:02:35;;;;;;;8.13;3.10;;;;;;;16.49;66.57;98971.88;4934288;29;20028;-91
2022/05/28 02:05:00;;;;;;;7.57;4.03;;;;;;;16.36;66.63;98956.53;4934157;29;20032;-92
2022/05/28 02:07:26;;;;;;;3.85;3.08;;;;;;;16.34;66.99;98961.47;4918233;29;20047;-92
2022/05/28 02:09:54;;;;;;;3.83;2.85;;;;;;;16.32;67.46;98975.38;4918415;29;20040;-91
2022/05/28 02:12:22;;;;;;;5.53;2.50;;;;;;;16.30;66.76;98961.28;4935439;29;20059;-94
2022/05/28 02:14:57;;;;;;;4.50;2.40;;;;;;;16.37;67.26;98977.13;4937843;29;20517;-93
2022/05/28 02:17:44;;;;;;;5.78;3.00;;;;;;;16.35;67.40;98982.09;4938740;29;20066;-93
2022/05/28 02:20:35;;;;;;;4.93;3.03;;;;;;;16.28;67.36;98970.88;4937833;29;20079;-93
2022/05/28 02:23:23;;;;;;;7.37;3.00;;;;;;;16.25;67.09;98971.50;4937004;29;20028;-93
2022/05/28 02:25:57;;;;;;;7.97;3.22;;;;;;;16.28;67.09;98974.41;4936375;29;20050;-93
2022/05/28 02:28:23;;;;;;;8.10;3.17;;;;;;;16.12;67.19;98963.19;4937841;29;20031;-93
2022/05/28 02:31:06;;;;;;;6.95;3.20;;;;;;;16.17;67.27;98987.47;4922082;29;20019;-93
2022/05/28 02:33:32;;;;;;;3.90;3.10;;;;;;;16.03;67.52;98969.69;4921433;29;20028;-92
2022/05/28 02:35:58;;;;;;;4.13;3.08;;;;;;;15.96;67.40;98979.09;4921424;29;20024;-93
2022/05/28 02:38:24;;;;;;;5.38;3.30;;;;;;;15.96;67.87;98975.59;4937222;29;20395;-92
2022/05/28 02:40:49;;;;;;;4.57;2.90;;;;;;;16.14;67.72;99000.88;4921421;29;20035;-93
2022/05/28 02:43:15;;;;;;;3.17;2.67;;;;;;;16.03;68.12;98988.72;4921363;29;20387;-93
2022/05/28 02:45:40;;;;;;;5.55;2.70;;;;;;;16.09;68.09;99001.03;4937279;29;20054;-92
2022/05/28 02:48:06;;;;;;;5.05;2.90;;;;;;;16.06;68.16;99001.66;4921633;29;20024;-93
2022/05/28 02:50:32;;;;;;;5.57;3.20;;;;;;;16.00;67.80;98990.16;4921314;29;20074;-92
2022/05/28 02:52:57;;;;;;;4.43;3.00;;;;;;;15.97;68.03;98988.03;4921388;29;20501;-93
2022/05/28 02:55:23;;;;;;;8.30;3.40;;;;;;;15.98;68.19;98992.38;4937415;29;20051;-92
2022/05/28 02:57:49;;;;;;;5.95;3.25;;;;;;;15.83;68.71;98977.28;4936946;29;20027;-92
2022/05/28 03:00:15;;;;;;;4.82;3.35;;;;;;;15.90;68.07;98988.50;4936891;29;20450;-93
2022/05/28 03:02:44;;;;;;;5.20;3.08;;;;;;;15.87;68.37;98988.31;4936889;29;20031;-92
2022/05/28 03:05:11;;;;;;;6.45;3.17;;;;;;;15.98;68.40;99003.25;4937072;29;20407;-92
2022/05/28 03:07:36;;;;;;;3.83;3.10;;;;;;;15.87;68.82;99001.91;4920477;29;20055;-92
2022/05/28 03:10:02;;;;;;;6.57;3.47;;;;;;;15.90;68.97;98996.66;4937066;29;20031;-93
2022/05/28 03:12:28;;;;;;;4.40;2.92;;;;;;;15.94;68.57;99004.97;4936636;29;20015;-93
2022/05/28 03:14:53;;;;;;;5.43;2.85;;;;;;;15.95;68.22;98988.34;4921620;29;20100;-92
2022/05/28 03:17:19;;;;;;;8.90;3.78;;;;;;;16.04;68.49;99014.75;4937256;29;20028;-92
2022/05/28 03:19:44;;;;;;;6.10;3.40;;;;;;;15.94;68.79;98999.53;4921299;29;20475;-91
2022/05/28 03:22:09;;;;;;;6.07;2.72;;;;;;;15.99;68.50;98999.38;4921021;29;20020;-93
2022/05/28 03:24:35;;;;;;;5.55;3.40;;;;;;;16.06;68.20;98996.22;4919615;29;20028;-92
2022/05/28 03:27:01;;;;;;;4.68;2.95;;;;;;;16.03;68.06;98989.50;4920623;29;20035;-93
2022/05/28 03:29:26;;;;;;;6.32;3.42;;;;;;;16.12;67.51;99000.41;4936438;29;20027;-93
2022/05/28 03:31:52;;;;;;;5.55;4.40;;;;;;;16.20;67.94;99018.63;4921049;29;20038;-92
2022/05/28 03:34:17;;;;;;;6.35;3.92;;;;;;;16.28;67.96;99027.94;4936667;29;20127;-93
2022/05/28 03:36:43;;;;;;;7.80;4.05;;;;;;;16.23;67.64;99007.16;4936330;29;20070;-93
2022/05/28 03:39:08;;;;;;;9.30;4.60;;;;;;;16.29;67.46;99024.09;4936247;29;20479;-92
2022/05/28 03:41:34;;;;;;;16.52;5.15;;;;;;;16.19;68.22;99017.06;4936048;29;20028;-92
2022/05/28 03:43:59;;;;;;;7.70;4.63;;;;;;;16.25;67.69;99013.06;4920527;29;20020;-92
2022/05/28 03:46:33;;;;;;;11.07;5.57;;;;;;;16.35;67.47;99020.94;4936030;29;20086;-92
2022/05/28 03:49:12;;;;;;;7.55;4.88;;;;;;;16.45;67.57;99035.34;4919720;29;20027;-92
2022/05/28 03:51:38;;;;;;;13.82;4.88;;;;;;;16.39;67.67;99028.44;4935948;29;20023;-92
2022/05/28 03:54:03;;;;;;;11.02;6.20;;;;;;;16.48;67.32;99029.28;4920140;29;20525;-92
2022/05/28 03:56:33;;;;;;;9.05;5.40;;;;;;;16.43;67.08;99002.25;4920073;29;20023;-92
2022/05/28 03:58:59;;;;;;;13.25;5.53;;;;;;;16.57;67.73;99047.19;4920166;29;20024;-92
2022/05/28 04:01:24;;;;;;;14.07;5.28;;;;;;;16.56;67.25;99032.03;4936111;29;20066;-91
2022/05/28 04:03:50;;;;;;;9.20;4.85;;;;;;;16.65;67.40;99034.75;4936175;29;20454;-94
2022/05/28 04:06:15;;;;;;;12.27;5.88;;;;;;;16.66;67.19;99041.78;4920006;29;20047;-93
2022/05/28 04:08:41;;;;;;;18.42;6.28;;;;;;;16.71;67.49;99047.06;4920268;29;20024;-94
2022/05/28 04:11:07;;;;;;;22.80;7.22;;;;;;;16.80;67.36;99051.72;4920532;29;20528;-94
2022/05/28 04:13:32;;;;;;;23.63;7.30;;;;;;;16.86;67.13;99050.50;4936081;29;20127;-93
2022/05/28 04:15:58;;;;;;;28.50;7.80;;;;;;;16.82;67.10;99050.31;4920178;29;20035;-94
2022/05/28 04:18:23;;;;;;;27.45;8.95;;;;;;;16.86;66.22;99047.78;4935695;29;20028;-94
2022/05/28 04:20:49;;;;;;;20.98;7.20;;;;;;;16.98;66.50;99069.72;4935610;29;20035;-93
2022/05/28 04:23:15;;;;;;;22.40;8.23;;;;;;;16.96;66.69;99061.06;4935509;29;20031;-93
2022/05/28 04:25:41;;;;;;;15.98;7.68;;;;;;;17.01;66.56;99073.69;4919755;29;20031;-93
2022/05/28 04:28:06;;;;;;;17.73;7.95;;;;;;;17.05;66.63;99071.94;4920033;29;20058;-93
2022/05/28 04:30:32;;;;;;;14.45;7.82;;;;;;;17.10;66.24;99075.31;4919862;29;20565;-93
2022/05/28 04:32:57;;;;;;;17.80;7.35;;;;;;;17.20;66.14;99078.84;4935763;29;20023;-93
2022/05/28 04:35:23;;;;;;;19.33;7.40;;;;;;;17.48;65.44;99101.09;4919377;29;20506;-94
2022/05/28 04:37:48;;;;;;;11.60;6.85;;;;;;;17.47;65.57;99092.13;4920342;29;20023;-92
2022/05/28 04:40:14;;;;;;;8.95;6.45;;;;;;;17.58;65.54;99101.56;4919838;29;20030;-94
2022/05/28 04:42:39;;;;;;;14.88;6.53;;;;;;;17.49;65.30;99079.00;4935184;29;20031;-94
2022/05/28 04:45:05;;;;;;;18.38;6.80;;;;;;;17.66;65.49;99096.41;4935631;29;20023;-94
2022/05/28 04:47:31;;;;;;;11.93;5.55;;;;;;;17.69;64.80;99099.31;4935091;29;20031;-94
2022/05/28 04:49:56;;;;;;;15.13;6.22;;;;;;;17.78;63.79;99099.28;4919649;29;20031;-94
2022/05/28 04:52:22;;;;;;;20.15;6.30;;;;;;;17.73;63.80;99086.66;4935194;29;20027;-94
2022/05/28 04:54:48;;;;;;;14.00;6.95;;;;;;;17.91;63.96;99109.25;4919413;29;20028;-93
2022/05/28 04:57:14;;;;;;;21.95;7.85;;;;;;;17.98;63.94;99122.38;4919316;29;20114;-94
2022/05/28 04:59:39;;;;;;;14.88;7.93;;;;;;;17.83;63.88;99099.16;4935181;29;20036;-94
2022/05/28 05:02:06;;;;;;;27.85;10.18;;;;;;;17.87;63.91;99099.31;4919428;29;20020;-94
2022/05/28 05:04:31;;;;;;;28.67;10.55;;;;;;;17.90;63.89;99113.06;4934711;29;20126;-93
2022/05/28 05:06:57;;;;;;;30.23;10.60;;;;;;;17.99;64.14;99121.22;4934428;29;20139;-93
2022/05/28 05:09:23;;;;;;;34.85;9.68;;;;;;;17.95;63.45;99104.75;4934801;29;20498;-94
2022/05/28 05:11:48;;;;;;;21.55;10.32;;;;;;;18.00;63.56;99106.50;4934762;29;20038;-95
2022/05/28 05:14:14;;;;;;;26.45;10.65;;;;;;;18.19;63.76;99125.19;4919596;29;20035;-93
2022/05/28 05:16:39;;;;;;;26.25;10.23;;;;;;;18.11;62.69;99096.03;4919058;29;20031;-93
2022/05/28 05:19:05;;;;;;;26.60;10.82;;;;;;;18.15;62.98;99103.22;4935298;29;20102;-94
2022/05/28 05:21:30;;;;;;;27.35;9.60;;;;;;;18.22;62.46;99097.31;4919127;29;20505;-94
2022/05/28 05:23:56;;;;;;;26.90;8.88;;;;;;;18.28;62.42;99093.28;4919750;29;20043;-94
2022/05/28 05:26:22;;;;;;;20.63;9.07;;;;;;;18.37;62.39;99099.47;4919037;29;20443;-95
2022/05/28 05:28:47;;;;;;;34.40;10.27;;;;;;;18.64;61.62;99108.34;4935206;29;20027;-94
2022/05/28 05:31:13;;;;;;;22.20;8.75;;;;;;;18.71;62.38;99107.81;4934780;29;20454;-95
2022/05/28 05:33:39;;;;;;;21.67;8.57;;;;;;;18.70;61.80;99101.56;4918664;29;20114;-94
2022/05/28 05:36:05;;;;;;;23.65;8.57;;;;;;;18.66;60.78;99102.56;4935799;29;20031;-93
2022/05/28 05:38:30;;;;;;;17.42;7.78;;;;;;;18.93;60.35;99121.22;4918801;29;20035;-94
2022/05/28 05:40:56;;;;;;;18.48;7.50;;;;;;;18.90;60.23;99116.41;4918834;29;20028;-93
2022/05/28 05:43:21;;;;;;;18.30;7.60;;;;;;;18.96;60.33;99104.16;4918823;29;20036;-94
2022/05/28 05:46:00;;;;;;;17.30;7.75;;;;;;;19.01;60.15;99095.00;4934780;29;20031;-94
2022/05/28 05:48:26;;;;;;;17.60;7.00;;;;;;;19.17;59.70;99108.84;4921729;29;20028;-94
2022/05/28 05:50:52;;;;;;;19.33;6.55;;;;;;;19.26;59.23;99095.13;4922473;29;20118;-94
2022/05/28 05:53:18;;;;;;;16.02;7.15;;;;;;;19.38;59.03;99092.47;4922598;29;20533;-94
2022/05/28 05:55:43;;;;;;;20.83;7.80;;;;;;;19.58;57.95;99086.19;4923024;29;20032;-94
2022/05/28 05:58:09;;;;;;;13.70;6.15;;;;;;;19.70;57.58;99081.91;4922615;29;20099;-94
2022/05/28 06:00:35;;;;;;;27.73;7.55;;;;;;;19.83;58.05;99089.03;4922557;29;20409;-95
2022/05/28 06:03:00;;;;;;;12.73;6.00;;;;;;;19.91;57.80;99081.88;4922895;29;20470;-94
2022/05/28 06:05:26;;;;;;;15.63;6.65;;;;;;;20.02;58.04;99077.56;4922213;29;20023;-94
2022/05/28 06:07:52;;;;;;;21.25;5.75;;;;;;;19.95;57.43;99039.88;4921739;29;20138;-93
2022/05/28 06:10:18;;;;;;;11.43;5.68;;;;;;;19.92;58.02;99051.50;4922197;29;20131;-92
2022/05/28 06:12:43;;;;;;;16.05;4.47;;;;;;;20.23;57.15;99072.03;4922705;29;20036;-93
2022/05/28 06:15:09;;;;;;;11.30;5.10;;;;;;;20.44;56.25;99052.81;4938405;29;20024;-92
2022/05/28 06:17:35;;;;;;;11.60;5.35;;;;;;;20.22;57.36;99055.97;4937481;29;20023;-91
2022/05/28 06:20:05;;;;;;;18.38;5.80;;;;;;;20.33;57.02;99052.44;4937502;29;20106;-92
2022/05/28 06:22:31;;;;;;;11.63;4.93;;;;;;;20.50;56.75;99062.38;4936630;29;20107;-92
2022/05/28 06:24:57;;;;;;;9.65;4.35;;;;;;;20.70;55.16;99046.97;4921991;29;20498;-91
2022/05/28 06:27:22;;;;;;;14.20;4.93;;;;;;;20.73;55.81;99051.78;4922502;29;20110;-91
2022/05/28 06:29:48;;;;;;;14.63;4.45;;;;;;;20.90;55.29;99044.47;4938801;29;20023;-92
2022/05/28 06:32:13;;;;;;;10.00;4.20;;;;;;;20.91;55.20;99046.81;4937281;29;20474;-91
2022/05/28 06:34:39;;;;;;;16.40;4.75;;;;;;;20.91;55.16;99055.03;4921667;29;20106;-91
2022/05/28 06:37:08;;;;;;;18.65;4.55;;;;;;;20.98;53.92;99040.78;4937310;29;20036;-92
2022/05/28 06:39:34;;;;;;;15.13;4.22;;;;;;;21.19;54.16;99049.63;4921278;29;20178;-92
2022/05/28 06:42:00;;;;;;;13.13;4.47;;;;;;;21.40;54.02;99037.69;4937826;29;20031;-91
2022/05/28 06:44:31;;;;;;;13.93;4.57;;;;;;;21.59;54.08;99040.56;4921809;29;20438;-91
2022/05/28 06:46:57;;;;;;;12.32;4.45;;;;;;;21.59;53.00;99026.09;4921265;29;20086;-90
2022/05/28 06:49:23;;;;;;;13.70;4.38;;;;;;;21.83;52.55;99024.34;4937751;29;20031;-89
2022/05/28 06:51:49;;;;;;;13.45;4.40;;;;;;;22.06;52.29;99030.81;4937745;29;20103;-92
2022/05/28 06:54:14;;;;;;;13.45;4.30;;;;;;;22.32;52.50;99037.75;4922275;29;20482;-93
2022/05/28 06:56:40;;;;;;;16.77;4.70;;;;;;;22.42;52.61;99033.66;4921123;29;20027;-93
2022/05/28 06:59:06;;;;;;;7.95;4.07;;;;;;;22.30;52.86;99038.09;4936676;29;20099;-91
2022/05/28 07:01:31;;;;;;;15.27;4.00;;;;;;;22.51;52.41;99053.47;4936812;29;20032;-91
2022/05/28 07:03:57;;;;;;;10.88;4.13;;;;;;;22.70;52.05;99036.25;4921139;29;20046;-91
2022/05/28 07:06:22;;;;;;;12.77;4.10;;;;;;;22.94;51.59;99049.72;4921198;29;20090;-90
2022/05/28 07:08:51;;;;;;;10.68;4.43;;;;;;;23.03;51.38;99037.78;4921059;29;20027;-90
2022/05/28 07:11:16;;;;;;;8.50;4.18;;;;;;;23.00;51.25;99022.81;4920718;29;20561;-90
2022/05/28 07:13:44;;;;;;;13.25;4.15;;;;;;;23.18;51.22;99020.47;4920862;29;20028;-90
2022/05/28 07:16:11;;;;;;;12.50;3.67;;;;;;;23.26;51.57;98999.41;4936721;29;20067;-91
2022/05/28 07:18:37;;;;;;;11.23;3.58;;;;;;;23.53;50.95;99014.03;4936591;29;20027;-91
2022/05/28 07:21:03;;;;;;;23.10;5.30;;;;;;;23.74;50.32;99032.88;4921888;29;20028;-94
2022/05/28 07:23:29;;;;;;;8.13;3.75;;;;;;;23.74;49.82;99000.72;4922084;29;20042;-93
2022/05/28 07:26:06;;;;;;;8.43;3.55;;;;;;;23.94;49.96;99006.94;4920589;29;20024;-92
2022/05/28 07:28:33;;;;;;;10.57;3.50;;;;;;;23.91;48.96;98988.44;4920432;29;20028;-90
2022/05/28 07:31:09;;;;;;;9.48;4.03;;;;;;;24.12;49.31;98978.97;4920567;29;20118;-93
2022/05/28 07:33:36;;;;;;;9.80;3.67;;;;;;;24.35;48.88;98990.72;4920000;29;20091;-92
2022/05/28 07:36:02;;;;;;;8.35;3.70;;;;;;;24.39;47.77;98971.50;4920276;29;20027;-91
2022/05/28 07:38:28;;;;;;;11.18;4.50;;;;;;;24.56;46.85;98984.75;4919908;29;20081;-92
2022/05/28 07:40:54;;;;;;;12.77;3.40;;;;;;;24.69;46.96;98968.00;4935909;29;20482;-91
2022/05/28 07:43:20;;;;;;;9.85;3.20;;;;;;;24.72;45.78;98972.78;4935769;29;20038;-93
2022/05/28 07:45:45;;;;;;;9.43;3.63;;;;;;;24.93;46.07;98986.81;4935868;29;20031;-91
2022/05/28 07:48:15;;;;;;;13.73;3.40;;;;;;;24.86;45.84;98969.41;4920293;29;20038;-92
2022/05/28 07:50:40;;;;;;;13.48;3.58;;;;;;;25.05;46.20;98980.28;4920449;29;20024;-92
2022/05/28 07:53:06;;;;;;;8.52;3.40;;;;;;;25.12;45.17;98960.28;4937130;29;20082;-93
2022/05/28 07:55:32;;;;;;;8.95;3.28;;;;;;;25.17;46.21;98946.16;4919978;29;20027;-94
2022/05/28 07:58:05;;;;;;;10.50;3.38;;;;;;;25.40;44.80;98951.53;4920615;29;20094;-93
2022/05/28 08:00:36;;;;;;;7.63;3.00;;;;;;;25.60;44.49;98949.38;4922492;29;20027;-95
2022/05/28 08:03:01;;;;;;;10.65;4.93;;;;;;;25.80;44.45;98952.72;4925200;29;20066;-94
2022/05/28 08:05:31;;;;;;;10.77;3.40;;;;;;;25.83;43.91;98931.84;4922554;29;20392;-94
2022/05/28 08:07:56;;;;;;;21.65;3.50;;;;;;;26.16;43.29;98947.47;4934531;29;20040;-96
2022/05/28 08:10:30;;;;;;;13.15;3.60;;;;;;;26.01;43.30;98928.06;4933119;29;20098;-96
2022/05/28 08:13:27;;;;;;;7.35;3.03;;;;;;;26.19;43.25;98924.66;4925118;29;20118;-96
2022/05/28 08:16:04;;;;;;;9.00;3.38;;;;;;;26.33;42.63;98912.88;4922168;29;20036;-96
2022/05/28 08:18:29;;;;;;;8.38;3.08;;;;;;;26.58;42.98;98938.72;4931843;29;20091;-92
2022/05/28 08:23:43;;;;;;;12.10;3.13;;;;;;;26.86;41.03;98931.72;4930119;29;20087;-90
2022/05/28 08:26:11;;;;;;;8.70;2.95;;;;;;;26.88;40.28;98931.34;4916652;29;20035;-92
2022/05/28 08:28:37;;;;;;;20.95;4.50;;;;;;;26.78;39.91;98914.31;4932432;29;20400;-90
2022/05/28 08:31:03;;;;;;;7.55;3.00;;;;;;;27.06;40.43;98915.59;4915844;29;20100;-91
2022/05/28 08:33:28;;;;;;;9.15;3.25;;;;;;;27.16;40.25;98922.31;4932537;29;20035;-90
2022/05/28 08:35:56;;;;;;;12.52;3.00;;;;;;;26.91;40.66;98908.44;4932738;29;20059;-91
2022/05/28 08:38:22;;;;;;;8.15;2.90;;;;;;;27.14;40.52;98910.88;4932943;29;20088;-93
2022/05/28 08:41:06;;;;;;;10.00;2.85;;;;;;;26.96;40.61;98919.13;4932736;29;20076;-94
2022/05/28 08:43:34;;;;;;;8.50;3.22;;;;;;;27.18;40.85;98920.75;4932913;29;20028;-94
2022/05/28 08:46:00;;;;;;;11.38;3.28;;;;;;;27.11;40.97;98926.25;4932407;29;20396;-94
2022/05/28 08:48:33;;;;;;;13.00;4.57;;;;;;;27.16;40.63;98923.09;4916984;29;20048;-91
2022/05/28 08:51:04;;;;;;;19.23;5.60;;;;;;;27.12;40.21;98916.81;4933460;29;20024;-94
2022/05/28 08:53:32;;;;;;;6.38;3.13;;;;;;;27.14;39.97;98894.28;4916666;29;20027;-94
2022/05/28 08:55:57;;;;;;;12.05;3.42;;;;;;;27.26;40.07;98905.00;4916452;29;20044;-95
2022/05/28 08:58:25;;;;;;;10.23;3.17;;;;;;;27.39;39.40;98913.69;4932424;29;20032;-93
2022/05/28 09:01:02;;;;;;;6.35;3.25;;;;;;;27.48;39.60;98918.88;4933385;29;20122;-96
2022/05/28 09:03:49;;;;;;;9.55;3.17;;;;;;;27.42;39.73;98915.69;4916751;29;20119;-95
2022/05/28 09:06:27;;;;;;;8.38;3.22;;;;;;;27.24;39.40;98907.38;4907448;29;20055;-96
2022/05/28 09:08:54;;;;;;;10.18;3.38;;;;;;;27.34;40.17;98900.28;4904808;29;20067;-96
2022/05/28 09:11:33;;;;;;;5.88;2.75;;;;;;;27.32;40.15;98917.25;4904601;29;20118;-96
2022/05/28 09:14:03;;;;;;;10.52;3.58;;;;;;;27.45;40.11;98917.66;4952895;29;20067;-95
2022/05/28 09:16:30;;;;;;;9.93;3.35;;;;;;;27.57;41.24;98913.72;4904827;29;20035;-94
2022/05/28 09:19:00;;;;;;;21.70;7.80;;;;;;;27.56;41.39;98901.09;4903827;29;20066;-94
2022/05/28 09:21:28;;;;;;;9.43;3.55;;;;;;;27.49;41.03;98909.38;4904356;29;20032;-95
2022/05/28 09:24:24;;;;;;;11.35;3.63;;;;;;;27.64;41.51;98915.69;4904943;29;20035;-94
2022/05/28 09:27:27;;;;;;;9.68;3.28;;;;;;;27.64;40.83;98915.69;4935729;29;20035;-95
2022/05/28 09:30:23;;;;;;;13.82;4.10;;;;;;;27.63;40.81;98908.59;4937055;29;20035;-94
2022/05/28 09:33:21;;;;;;;7.45;2.92;;;;;;;27.76;40.59;98912.53;4937176;29;20054;-92
2022/05/28 09:36:06;;;;;;;9.07;3.53;;;;;;;27.57;41.56;98880.53;4920203;29;20129;-94
2022/05/28 09:38:31;;;;;;;11.35;3.28;;;;;;;27.72;41.58;98911.75;4905410;29;20063;-95
2022/05/28 09:41:15;;;;;;;19.67;3.47;;;;;;;27.78;40.83;98901.88;4935553;29;20122;-95
2022/05/28 09:43:49;;;;;;;12.32;3.22;;;;;;;27.66;41.40;98888.44;4937969;29;20036;-91
2022/05/28 09:46:31;;;;;;;14.13;4.40;;;;;;;27.87;40.63;98902.31;4935124;29;20086;-96
2022/05/28 09:49:18;;;;;;;7.03;3.40;;;;;;;27.54;39.18;98871.06;4951252;29;20020;-92
2022/05/28 09:52:07;;;;;;;9.35;3.00;;;;;;;27.80;39.86;98886.44;4903049;29;20019;-91
2022/05/28 09:54:33;;;;;;;10.63;3.65;;;;;;;27.79;40.56;98875.78;4919442;29;20062;-92
2022/05/28 09:57:26;;;;;;;14.75;3.78;;;;;;;27.58;39.14;98871.84;4902978;29;20032;-94
2022/05/28 09:59:57;;;;;;;11.68;3.28;;;;;;;27.54;39.62;98859.22;4918493;29;20024;-93
2022/05/28 10:02:32;;;;;;;10.45;3.25;;;;;;;27.59;39.35;98867.09;4903009;29;20514;-92
2022/05/28 10:05:08;;;;;;;5.75;2.97;;;;;;;27.73;39.24;98871.84;4918412;29;20027;-93
2022/05/28 10:07:43;;;;;;;6.45;3.13;;;;;;;27.73;38.87;98847.72;4902917;29;20601;-93
2022/05/28 10:10:22;;;;;;;12.48;3.75;;;;;;;28.02;37.91;98876.19;4920610;29;20023;-92
2022/05/28 10:12:49;;;;;;;5.32;2.60;;;;;;;28.02;36.57;98876.19;4934378;29;20024;-96
2022/05/28 10:15:18;;;;;;;12.30;3.20;;;;;;;28.12;37.09;98877.34;4934783;29;20086;-96
2022/05/28 10:17:55;;;;;;;6.88;2.83;;;;;;;27.96;36.39;98846.53;4936563;29;20083;-95
2022/05/28 10:20:21;;;;;;;9.25;2.75;;;;;;;27.85;36.84;98854.84;4918936;29;20031;-92
2022/05/28 10:22:47;;;;;;;6.28;2.88;;;;;;;27.80;37.68;98846.94;4935298;29;20459;-93
2022/05/28 10:25:37;;;;;;;8.98;2.83;;;;;;;27.90;37.46;98842.59;4919596;29;20024;-93
2022/05/28 10:28:09;;;;;;;8.35;2.75;;;;;;;28.01;37.79;98838.59;4934835;29;20034;-93
2022/05/28 10:30:38;;;;;;;6.82;3.05;;;;;;;28.08;37.49;98825.94;4935414;29;20030;-93
2022/05/28 10:33:08;;;;;;;8.07;3.78;;;;;;;28.15;38.35;98834.22;4919703;29;20027;-94
2022/05/28 10:35:34;;;;;;;7.45;3.10;;;;;;;28.30;37.70;98832.19;4955430;29;20031;-93
2022/05/28 10:38:13;;;;;;;9.65;2.67;;;;;;;28.36;37.64;98839.69;4939802;29;20035;-95
2022/05/28 10:40:52;;;;;;;9.73;2.88;;;;;;;28.39;37.50;98827.03;4923674;29;20027;-95
2022/05/28 10:43:30;;;;;;;8.43;3.10;;;;;;;28.62;36.91;98826.56;4938105;29;20028;-94
2022/05/28 10:46:31;;;;;;;9.93;2.75;;;;;;;28.72;36.36;98822.94;4921651;29;20024;-93
2022/05/28 10:49:02;;;;;;;11.23;3.20;;;;;;;29.00;35.92;98835.03;4921084;29;20055;-93
2022/05/28 10:51:59;;;;;;;11.20;3.08;;;;;;;29.04;35.42;98821.16;4937970;29;20024;-94
2022/05/28 10:54:28;;;;;;;9.57;3.17;;;;;;;29.17;35.17;98827.81;4936277;29;20383;-94
2022/05/28 10:57:01;;;;;;;13.32;2.85;;;;;;;29.24;35.09;98821.41;4938358;29;20417;-94
2022/05/28 11:00:00;;;;;;;8.77;2.92;;;;;;;29.24;35.82;98813.91;4937830;29;20028;-94
2022/05/28 11:02:34;;;;;;;9.93;2.88;;;;;;;29.12;35.78;98826.28;4919404;29;20390;-93
2022/05/28 11:05:15;;;;;;;10.65;4.22;;;;;;;29.16;36.10;98817.94;4937836;29;20558;-93
2022/05/28 11:07:59;;;;;;;8.88;2.80;;;;;;;29.15;35.08;98821.88;4952091;29;20063;-92
2022/05/28 11:10:53;;;;;;;12.68;2.85;;;;;;;29.19;35.13;98817.88;4936824;29;20038;-92
2022/05/28 11:13:25;;;;;;;8.90;3.30;;;;;;;29.30;34.94;98823.38;4937462;29;20482;-92
2022/05/28 11:16:16;;;;;;;10.48;3.55;;;;;;;29.51;35.13;98813.25;4936470;29;20035;-94
2022/05/28 11:19:04;;;;;;;9.75;3.33;;;;;;;29.40;33.26;98803.06;4918938;29;20083;-93
2022/05/28 11:21:38;;;;;;;13.60;3.63;;;;;;;29.61;34.06;98815.16;4936217;29;20087;-94
2022/05/28 11:24:07;;;;;;;11.43;3.40;;;;;;;29.45;33.62;98798.25;4937145;29;20043;-94
2022/05/28 11:26:54;;;;;;;10.23;3.40;;;;;;;29.60;33.07;98810.81;4937274;29;20122;-94
2022/05/28 11:30:01;;;;;;;13.07;2.88;;;;;;;29.71;33.52;98805.19;4936863;29;20126;-94
2022/05/28 11:33:05;;;;;;;7.47;2.50;;;;;;;29.76;31.99;98808.31;4920919;29;20054;-93
2022/05/28 11:35:37;;;;;;;13.10;3.97;;;;;;;29.88;32.43;98804.19;4937186;29;20036;-93
2022/05/28 11:38:15;;;;;;;9.00;2.95;;;;;;;29.80;32.14;98792.41;4936623;29;20027;-94
2022/05/28 11:41:34;;;;;;;10.63;3.28;;;;;;;29.57;32.80;98787.47;4937054;29;20024;-95
2022/05/28 11:44:18;;;;;;;11.95;3.35;;;;;;;29.87;32.55;98774.09;4900565;29;20459;-93
2022/05/28 11:46:49;;;;;;;13.73;3.10;;;;;;;30.07;31.81;98779.81;4936717;29;20031;-95